Share

Bagley, MN

Long Lake (KMNBEMID4) Elev 1367 ft | 47.66 °N, 94.98 °W | Change Station

Current weather conditions updated 1 second ago

Overcast
Overcast
40.5 °F
Feels Like 36 °F
N
7.0
Wind Variable Wind from SE
Gusts 7.0 mph
Sunrise 6:27 AM
Sunset 8:15 PM
Moon Waning Gibbous

Tomorrow is forecast to be Much Warmer than today.

Pressure 29.99 in
Visibility 10.0 miles
Clouds Overcast 7000 ft
Windchill 36 °F
Dew Point 23 °F
Humidity 49%
Rainfall 0.00 in
Snow Depth Not available.
UV 0.0 out of 16
Pollen 8.90 out of 12
Air Quality Not available.
Flu Activity Sporadic
METAR KTVF 190335Z AUTO 12023G27KT 10SM OVC070 06/M05 A2999 RMK AO1

More Conditions Fewer Conditions

Pressure 29.99 in
Visibility 10.0 miles
Clouds Overcast 7000 ft
Windchill 36 °F
Dew Point 23 °F
Humidity 49%
Rainfall 0.00 in
Snow Depth Not available.
UV 0.0 out of 16
Pollen 8.90 out of 12
Air Quality Not available.
Flu Activity Sporadic
METAR KTVF 190335Z AUTO 12023G27KT 10SM OVC070 06/M05 A2999 RMK AO1

More Conditions Fewer Conditions

10-Day Weather Forecast

Almanac

Astronomy

Apr. 18, 2014 Rise Set
Actual Time 6:27 AM CDT 8:15 PM CDT
Civil Twilight 5:54 AM CDT 8:48 PM CDT
Nautical Twilight 5:14 AM CDT 9:28 PM CDT
Astronomical Twilight 4:30 AM CDT 10:12 PM CDT
Moon No Moon Rise 8:40 AM CDT (4/18)
Length of Visible Light 14h 53m
Length of Day
13h 48m
Tomorrow will be 3m 14s longer.
Waning Gibbous, 83% of the Moon is Illuminated
Today
Waning Gibbous
Apr 22
Last Quarter
Apr 29
New
May 6
First Quarter
May 14
Full

Today's Extremes

State Highs State Lows

Community

  • Sunset Silhouettes
    Sunset Silhouettes
  • FL sunset Perico Isle
    FL sunset Perico Isle
  • Cloudy spring view
    Cloudy spring view
  • Old barn
    Old barn
  • What's for Lunch?
    What's for Lunch?

WunderPhotos

Upload Photos

1,702,630 photos uploaded!

WunderBlogs® & News

Nearby

Snow Depth

Station Depth Elevation
No new snow has been reported.

Coastal Water Temperatures

Place Temperature
No Stations Reporting

Earthquake Activity

City Distance Mag. Time & Date
No recent earthquake activity has been reported nearby.
Minimum magnitude displayed is 2.5.

Nearby Weather Stations

Station Location Temp. Windchill Dew Point Humidity Wind Precip. Elev Updated Type
Long Lake, Bemidji, MN 40.5 °F 36 °F 23 °F 49% SE  at  7.0 mph 0.00 in / hr 1367 ft 10:45 PM CDT Rapid Fire
RAWS ITASCA MN, Lake George, MN 41 °F 36 °F 22 °F 46% SE  at  8 mph 0.00 in / hr 1479 ft 10:07 PM CDT MADIS
RAWS BEMIDJI MN, Bemidji, MN 41 °F 32 °F 17 °F 38% SE  at  19 mph 0.00 in / hr 1376 ft 10:06 PM CDT MADIS
Grange Rd, Bemidji, MN 40.3 °F 37 °F 21 °F 45% East  at  5.1 mph 0.00 in / hr 1417 ft 10:45 PM CDT Rapid Fire
Bemidji State University - Dept of Geogr, Bemidji, MN 39.6 °F 30 °F 24 °F 54% East  at  22.0 mph 0.00 in / hr 1352 ft 10:45 PM CDT Rapid Fire

Show More Stations Show Fewer Stations

What do you think?

We're not finished. Please let us know what you like, what you don't like, and what you are still missing.